Time;durP1;ratioP1;P1;durP2;ratioP2;P2;SDS_P1;SDS_P2;PMS_P1;PMS_P2;Temp;Humidity;BMP_temperature;BMP_pressure;BME280_temperature;BME280_humidity;BME280_pressure;Samples;Min_cycle;Max_cycle;Signal;HPM_P1;HPM_P2
2022/07/03 00:01:09;;;;;;;5.50;3.00;;;;;;;17.32;87.56;101243.27;84777;1329;25248;-71
2022/07/03 00:03:17;;;;;;;6.00;3.20;;;;;;;17.29;87.59;101243.95;84787;1327;22741;-71
2022/07/03 00:05:25;;;;;;;3.90;3.10;;;;;;;17.24;87.56;101243.11;84788;1326;22588;-71
2022/07/03 00:07:32;;;;;;;4.30;2.70;;;;;;;17.22;87.66;101241.98;84790;1327;22834;-71
2022/07/03 00:09:40;;;;;;;2.90;2.70;;;;;;;17.20;87.75;101244.55;84766;1327;22586;-71
2022/07/03 00:11:48;;;;;;;4.00;2.70;;;;;;;17.20;88.02;101239.96;84767;1318;22593;-71
2022/07/03 00:13:55;;;;;;;4.40;2.50;;;;;;;17.20;88.02;101234.33;84780;1322;22639;-71
2022/07/03 00:16:03;;;;;;;4.90;3.20;;;;;;;17.19;88.18;101229.44;84768;1326;25435;-71
2022/07/03 00:18:11;;;;;;;5.40;3.10;;;;;;;17.19;88.09;101229.47;84792;1326;22584;-71
2022/07/03 00:20:18;;;;;;;3.00;2.70;;;;;;;17.17;87.99;101231.67;84788;1328;22791;-71
2022/07/03 00:22:27;;;;;;;3.20;2.70;;;;;;;17.13;87.95;101230.28;84814;1323;22697;-72
2022/07/03 00:24:41;;;;;;;5.80;3.00;;;;;;;17.11;88.07;101232.89;84783;1327;22759;-71
2022/07/03 00:26:51;;;;;;;3.70;2.60;;;;;;;17.08;88.06;101230.22;84809;1329;22795;-71
2022/07/03 00:29:00;;;;;;;5.80;3.30;;;;;;;17.06;88.15;101228.56;84813;1326;22683;-71
2022/07/03 00:31:08;;;;;;;3.50;2.80;;;;;;;17.06;88.56;101229.44;84801;1326;22664;-72
2022/07/03 00:33:15;;;;;;;6.60;3.90;;;;;;;17.05;88.42;101226.81;84802;1326;23284;-72
2022/07/03 00:35:22;;;;;;;3.20;2.90;;;;;;;17.03;88.33;101230.10;84810;1327;22549;-72
2022/07/03 00:37:30;;;;;;;3.00;2.80;;;;;;;17.00;88.53;101231.65;84797;1323;22649;-71
2022/07/03 00:39:42;;;;;;;5.70;2.70;;;;;;;16.99;88.61;101234.38;84797;1328;25287;-71
2022/07/03 00:41:49;;;;;;;4.00;2.60;;;;;;;16.96;88.60;101231.88;84795;1321;22578;-71
2022/07/03 00:43:57;;;;;;;5.80;3.30;;;;;;;16.93;88.54;101232.90;84780;1323;22577;-71
2022/07/03 00:46:10;;;;;;;3.90;2.80;;;;;;;16.91;88.64;101230.38;84800;1318;22690;-71
2022/07/03 00:48:19;;;;;;;5.80;2.90;;;;;;;16.87;88.54;101232.33;84781;1323;22542;-71
2022/07/03 00:50:31;;;;;;;3.40;2.50;;;;;;;16.85;88.66;101229.29;84792;1326;25432;-71
2022/07/03 00:52:38;;;;;;;4.30;2.60;;;;;;;16.82;88.69;101226.08;84781;1327;25435;-71
2022/07/03 00:54:51;;;;;;;3.00;2.70;;;;;;;16.81;88.97;101227.16;84791;1327;24154;-71
2022/07/03 00:56:58;;;;;;;3.00;2.50;;;;;;;16.82;89.01;101227.66;84783;1327;22547;-70
2022/07/03 00:59:06;;;;;;;4.50;2.70;;;;;;;16.81;89.12;101224.36;84805;1327;23839;-72
2022/07/03 01:01:13;;;;;;;3.40;3.10;;;;;;;16.81;89.12;101219.63;84794;1327;22559;-72
2022/07/03 01:03:22;;;;;;;4.30;3.00;;;;;;;16.80;89.20;101221.25;84880;1323;22713;-72
2022/07/03 01:05:34;;;;;;;3.40;3.10;;;;;;;16.77;89.07;101216.79;84883;1327;22585;-72
2022/07/03 01:08:02;;;;;;;3.30;2.80;;;;;;;16.73;89.03;101216.10;84874;1327;22562;-70
2022/07/03 01:10:13;;;;;;;3.70;2.50;;;;;;;16.68;89.13;101217.36;84824;1318;22574;-71
2022/07/03 01:12:27;;;;;;;5.10;2.90;;;;;;;16.66;89.20;101216.63;84890;1327;22627;-71
2022/07/03 01:14:45;;;;;;;2.40;2.20;;;;;;;16.64;89.45;101212.64;84873;1319;22692;-71
2022/07/03 01:16:58;;;;;;;5.60;3.00;;;;;;;16.64;89.48;101211.59;84867;1327;22585;-71
2022/07/03 01:19:24;;;;;;;4.00;3.70;;;;;;;16.63;89.53;101207.59;84856;1327;22589;-70
2022/07/03 01:21:37;;;;;;;4.00;3.20;;;;;;;16.61;89.56;101206.10;84881;1323;23794;-71
2022/07/03 01:24:46;;;;;;;3.30;3.00;;;;;;;16.61;89.85;101208.77;84851;1324;22648;-72
2022/07/03 01:26:58;;;;;;;3.50;3.00;;;;;;;16.59;89.71;101204.61;84914;1323;22637;-71
2022/07/03 01:29:09;;;;;;;5.50;3.10;;;;;;;16.58;89.67;101202.24;84831;1323;25569;-70
2022/07/03 01:31:20;;;;;;;4.60;3.70;;;;;;;16.57;89.81;101202.64;84825;1325;25942;-71
2022/07/03 01:33:31;;;;;;;3.60;2.70;;;;;;;16.57;89.63;101200.52;84852;1322;22592;-71
2022/07/03 01:35:42;;;;;;;4.00;3.70;;;;;;;16.55;89.65;101199.02;84823;1324;22617;-71
2022/07/03 01:37:49;;;;;;;5.90;3.50;;;;;;;16.54;89.69;101195.71;84823;1324;22611;-71
2022/07/03 01:39:56;;;;;;;4.30;3.50;;;;;;;16.54;89.67;101195.57;84822;1324;23815;-71
2022/07/03 01:42:05;;;;;;;5.60;4.30;;;;;;;16.51;89.52;101195.52;84809;1317;23067;-71
2022/07/03 01:44:15;;;;;;;4.30;3.90;;;;;;;16.47;89.44;101192.34;84802;1325;22775;-71
2022/07/03 01:46:27;;;;;;;5.10;3.90;;;;;;;16.41;89.16;101191.09;84817;1325;22537;-71
2022/07/03 01:48:34;;;;;;;3.50;3.20;;;;;;;16.36;89.37;101187.62;84827;1326;22557;-71
2022/07/03 01:50:42;;;;;;;4.30;3.90;;;;;;;16.33;89.33;101189.55;84822;1324;25337;-71
2022/07/03 01:52:50;;;;;;;7.20;3.60;;;;;;;16.30;89.53;101186.85;84821;1327;22590;-71
2022/07/03 01:54:57;;;;;;;4.00;3.30;;;;;;;16.27;89.25;101185.44;84808;1321;22582;-71
2022/07/03 01:57:06;;;;;;;4.40;3.50;;;;;;;16.22;89.15;101189.73;84824;1324;23901;-71
2022/07/03 01:59:14;;;;;;;4.50;4.10;;;;;;;16.18;89.22;101188.70;84798;1323;22606;-71
2022/07/03 02:01:26;;;;;;;5.10;4.30;;;;;;;16.14;89.36;101188.34;84810;1324;24390;-71
2022/07/03 02:03:38;;;;;;;4.30;3.90;;;;;;;16.10;89.28;101187.30;84828;1324;22689;-71
2022/07/03 02:05:47;;;;;;;6.50;3.40;;;;;;;16.05;89.29;101185.98;84788;1324;22617;-71
2022/07/03 02:08:00;;;;;;;6.20;3.70;;;;;;;15.99;89.33;101181.68;84803;1327;22757;-71
2022/07/03 02:10:09;;;;;;;4.90;3.40;;;;;;;15.96;89.44;101179.86;84818;1325;22590;-71
2022/07/03 02:12:18;;;;;;;5.10;3.90;;;;;;;15.94;89.56;101182.40;84795;1324;23936;-71
2022/07/03 02:14:32;;;;;;;6.30;3.20;;;;;;;15.92;89.54;101181.64;84826;1322;22584;-71
2022/07/03 02:16:52;;;;;;;6.10;3.80;;;;;;;15.88;89.47;101182.89;84808;1324;22587;-71
2022/07/03 02:19:05;;;;;;;4.50;3.40;;;;;;;15.85;89.53;101181.44;84835;1318;22898;-71
2022/07/03 02:21:18;;;;;;;4.30;3.90;;;;;;;15.83;89.62;101186.30;84801;1324;22686;-71
2022/07/03 02:23:26;;;;;;;3.50;3.30;;;;;;;15.82;89.59;101184.42;84817;1322;24384;-71
2022/07/03 02:25:36;;;;;;;3.90;3.60;;;;;;;15.77;89.30;101181.98;84823;1326;22607;-71
2022/07/03 02:27:48;;;;;;;3.60;3.30;;;;;;;15.72;89.30;101185.59;84787;1318;24409;-71
2022/07/03 02:30:02;;;;;;;4.20;3.80;;;;;;;15.68;89.47;101183.66;84810;1324;24158;-71
2022/07/03 02:32:14;;;;;;;8.40;3.60;;;;;;;15.64;89.45;101188.92;84822;1321;22647;-71
2022/07/03 02:34:26;;;;;;;4.80;3.40;;;;;;;15.61;89.57;101186.56;84813;1324;24225;-71
2022/07/03 02:36:34;;;;;;;3.50;3.20;;;;;;;15.61;89.85;101191.86;84810;1322;24242;-71
2022/07/03 02:38:43;;;;;;;8.30;3.80;;;;;;;15.61;89.96;101192.37;84804;1324;26046;-71
2022/07/03 02:40:58;;;;;;;5.20;3.60;;;;;;;15.63;90.19;101189.68;84825;1324;24155;-71
2022/07/03 02:43:18;;;;;;;4.00;3.10;;;;;;;15.65;90.27;101191.89;84824;1318;22597;-71
2022/07/03 02:45:30;;;;;;;3.40;3.00;;;;;;;15.68;90.61;101194.58;84640;1327;22650;-71
2022/07/03 02:47:46;;;;;;;4.70;3.60;;;;;;;15.73;90.81;101197.13;84807;1325;22592;-70
2022/07/03 02:50:05;;;;;;;5.20;3.60;;;;;;;15.77;90.92;101187.80;84787;1327;24479;-71
2022/07/03 02:52:27;;;;;;;5.40;3.10;;;;;;;15.82;90.98;101190.56;84815;1325;23859;-71
2022/07/03 02:54:43;;;;;;;8.20;2.70;;;;;;;15.85;90.61;101190.57;84798;1326;22593;-71
2022/07/03 02:57:01;;;;;;;3.20;2.60;;;;;;;15.90;90.59;101188.94;84821;1324;24271;-71
2022/07/03 02:59:13;;;;;;;5.10;2.60;;;;;;;15.94;90.47;101186.67;84821;1327;22605;-71
2022/07/03 03:01:30;;;;;;;2.30;2.10;;;;;;;15.98;90.28;101187.89;84825;1324;24384;-71
2022/07/03 03:03:39;;;;;;;4.30;2.40;;;;;;;16.01;89.86;101188.45;84830;1324;24300;-71
2022/07/03 03:05:53;;;;;;;5.10;2.70;;;;;;;16.04;89.66;101186.57;84815;1324;22549;-72
2022/07/03 03:08:11;;;;;;;3.40;2.20;;;;;;;16.08;89.49;101187.21;84808;1324;22720;-72
2022/07/03 03:10:21;;;;;;;5.40;1.80;;;;;;;16.13;89.27;101182.61;84813;1327;22561;-72
2022/07/03 03:12:32;;;;;;;2.10;1.90;;;;;;;16.17;89.07;101184.14;84809;1326;22686;-71
2022/07/03 03:14:42;;;;;;;4.80;1.70;;;;;;;16.22;88.90;101177.71;84826;1323;23816;-71
2022/07/03 03:16:53;;;;;;;1.90;1.70;;;;;;;16.28;88.70;101175.52;84824;1324;22708;-71
2022/07/03 03:19:00;;;;;;;4.20;2.00;;;;;;;16.34;88.09;101174.52;84795;1323;22593;-71
2022/07/03 03:21:15;;;;;;;2.70;1.90;;;;;;;16.40;87.82;101168.05;84823;1323;24443;-71
2022/07/03 03:23:25;;;;;;;2.40;1.30;;;;;;;16.48;87.30;101163.06;84817;1324;22599;-71
2022/07/03 03:25:32;;;;;;;5.20;1.50;;;;;;;16.54;87.22;101161.54;84791;1324;23594;-71
2022/07/03 03:27:40;;;;;;;2.60;1.60;;;;;;;16.63;86.97;101159.01;84833;1323;24409;-71
2022/07/03 03:29:47;;;;;;;5.80;1.50;;;;;;;16.71;86.64;101160.02;84813;1323;22886;-71
2022/07/03 03:31:55;;;;;;;3.10;1.70;;;;;;;16.87;86.46;101160.61;84770;1327;22562;-70
2022/07/03 03:34:02;;;;;;;4.60;1.40;;;;;;;17.13;85.52;101162.42;84811;1327;22598;-72
2022/07/03 03:36:11;;;;;;;2.40;1.50;;;;;;;17.61;85.56;101160.23;84797;1324;22727;-72
2022/07/03 03:38:19;;;;;;;4.90;1.70;;;;;;;18.50;85.07;101154.66;84815;1322;22596;-70
2022/07/03 03:40:26;;;;;;;3.80;1.50;;;;;;;19.53;83.69;101152.13;84823;1324;25364;-71
2022/07/03 03:42:34;;;;;;;4.10;1.80;;;;;;;20.51;81.44;101147.02;84840;1321;22605;-71
2022/07/03 03:44:41;;;;;;;3.80;1.40;;;;;;;21.46;79.24;101145.61;84832;1327;24416;-72
2022/07/03 03:46:49;;;;;;;6.10;2.00;;;;;;;22.43;77.34;101146.18;84852;1326;25368;-72
2022/07/03 03:48:57;;;;;;;4.20;1.20;;;;;;;23.26;72.50;101149.59;84869;1324;25431;-72
2022/07/03 03:51:07;;;;;;;3.70;1.50;;;;;;;23.94;69.08;101148.76;84910;1326;22579;-72
2022/07/03 03:53:14;;;;;;;9.60;2.50;;;;;;;24.57;66.43;101140.41;84912;1318;22588;-72
2022/07/03 03:55:22;;;;;;;4.60;1.80;;;;;;;25.22;63.38;101140.10;84828;1322;22602;-72
2022/07/03 03:57:29;;;;;;;2.60;1.20;;;;;;;25.75;60.38;101136.59;84808;1323;22574;-71
2022/07/03 03:59:38;;;;;;;5.80;1.90;;;;;;;26.30;58.25;101139.65;84814;1322;22616;-71
2022/07/03 04:01:47;;;;;;;5.10;1.70;;;;;;;26.81;55.88;101138.86;84822;1324;25409;-72
2022/07/03 04:03:54;;;;;;;5.10;2.10;;;;;;;27.38;54.66;101137.19;84842;1321;22766;-72
2022/07/03 04:06:02;;;;;;;6.00;1.70;;;;;;;27.96;53.05;101137.79;84824;1323;22601;-72
2022/07/03 04:08:10;;;;;;;2.30;1.10;;;;;;;28.52;50.59;101130.53;84823;1324;24262;-72
2022/07/03 04:10:17;;;;;;;3.90;1.70;;;;;;;29.04;48.34;101131.91;84848;1326;22884;-72
2022/07/03 04:12:25;;;;;;;1.00;0.80;;;;;;;29.43;46.47;101131.55;84819;1326;24202;-72
2022/07/03 04:14:32;;;;;;;7.50;1.50;;;;;;;29.78;45.70;101133.56;84841;1324;25290;-72
2022/07/03 04:16:40;;;;;;;2.40;1.10;;;;;;;30.12;43.92;101138.77;84805;1323;25393;-72
2022/07/03 04:18:47;;;;;;;2.70;1.30;;;;;;;30.32;42.72;101140.98;84817;1328;22742;-72
2022/07/03 04:20:55;;;;;;;3.90;1.30;;;;;;;30.67;41.88;101143.61;84840;1326;22580;-72
2022/07/03 04:23:02;;;;;;;3.80;1.30;;;;;;;30.97;41.03;101142.64;84827;1324;24926;-72
2022/07/03 04:25:11;;;;;;;2.10;1.00;;;;;;;31.25;39.40;101135.34;84826;1324;22542;-72
2022/07/03 04:27:20;;;;;;;2.60;1.10;;;;;;;31.48;39.22;101137.19;84827;1325;22598;-72
2022/07/03 04:29:28;;;;;;;1.50;0.90;;;;;;;31.81;38.72;101137.81;84807;1324;22648;-72
2022/07/03 04:31:35;;;;;;;3.40;0.80;;;;;;;32.04;37.46;101139.80;84813;1324;24000;-72
2022/07/03 04:33:44;;;;;;;2.30;0.90;;;;;;;32.13;36.85;101137.63;84840;1324;22550;-72
2022/07/03 04:35:52;;;;;;;3.40;1.00;;;;;;;32.01;36.56;101131.88;84820;1324;22599;-72
2022/07/03 04:37:59;;;;;;;1.90;0.90;;;;;;;31.84;36.51;101133.09;84827;1324;22577;-72
2022/07/03 04:40:10;;;;;;;2.00;0.90;;;;;;;31.79;36.23;101133.34;84814;1328;22593;-72
2022/07/03 04:42:17;;;;;;;2.80;0.90;;;;;;;31.52;36.49;101132.02;84814;1324;25432;-72
2022/07/03 04:44:24;;;;;;;2.50;1.00;;;;;;;30.82;36.95;101126.54;84810;1324;24939;-72
2022/07/03 04:46:32;;;;;;;3.40;0.90;;;;;;;29.99;38.06;101124.08;84829;1324;22675;-72
2022/07/03 04:48:40;;;;;;;2.90;0.90;;;;;;;29.48;38.96;101125.58;84843;1324;24166;-72
2022/07/03 04:50:47;;;;;;;3.30;1.00;;;;;;;29.44;39.40;101126.60;84801;1324;24256;-72
2022/07/03 04:52:55;;;;;;;3.30;1.30;;;;;;;29.75;39.42;101126.88;84822;1323;22550;-73
2022/07/03 04:55:03;;;;;;;1.40;0.80;;;;;;;30.18;39.17;101122.39;84818;1328;22577;-72
2022/07/03 04:57:10;;;;;;;5.10;2.40;;;;;;;30.60;38.08;101122.15;84820;1327;25429;-72
2022/07/03 04:59:17;;;;;;;3.00;0.90;;;;;;;31.06;37.26;101123.29;84824;1323;22543;-72
2022/07/03 05:01:25;;;;;;;5.00;1.40;;;;;;;31.50;37.01;101124.56;84815;1324;22654;-72
2022/07/03 05:03:33;;;;;;;3.00;1.40;;;;;;;31.96;36.60;101119.02;84817;1324;22594;-72
2022/07/03 05:05:40;;;;;;;1.90;0.90;;;;;;;32.46;35.73;101117.87;84830;1327;22658;-71
2022/07/03 05:07:48;;;;;;;2.00;0.80;;;;;;;32.70;34.36;101123.16;84849;1322;22582;-72
2022/07/03 05:09:55;;;;;;;5.80;1.30;;;;;;;32.88;34.04;101119.96;84844;1327;25290;-72
2022/07/03 05:12:03;;;;;;;5.40;1.10;;;;;;;33.13;33.27;101118.41;84840;1327;22587;-72
2022/07/03 05:14:10;;;;;;;3.80;0.90;;;;;;;33.30;32.81;101123.35;84855;1324;22617;-72
2022/07/03 05:16:18;;;;;;;3.40;1.00;;;;;;;33.52;32.50;101125.61;84810;1328;22540;-72
2022/07/03 05:18:25;;;;;;;4.30;1.00;;;;;;;33.74;32.58;101133.85;84820;1324;25554;-72
2022/07/03 05:20:33;;;;;;;1.60;0.90;;;;;;;34.11;31.45;101134.73;84836;1325;22600;-72
2022/07/03 05:22:40;;;;;;;1.40;0.70;;;;;;;34.16;30.96;101135.33;84805;1326;23800;-72
2022/07/03 05:24:47;;;;;;;3.50;1.10;;;;;;;34.44;30.93;101138.77;84837;1324;23535;-72
2022/07/03 05:26:55;;;;;;;2.20;0.70;;;;;;;34.81;30.25;101138.56;84828;1324;22597;-72
2022/07/03 05:29:03;;;;;;;2.30;0.90;;;;;;;34.97;29.62;101136.39;84852;1324;22629;-72
2022/07/03 05:31:11;;;;;;;5.20;1.10;;;;;;;35.18;29.64;101136.00;84825;1328;22588;-72
2022/07/03 05:33:18;;;;;;;1.70;0.80;;;;;;;35.44;28.98;101133.22;84831;1327;22613;-72
2022/07/03 05:35:25;;;;;;;3.30;1.00;;;;;;;35.51;28.13;101135.02;84813;1326;24343;-72
2022/07/03 05:37:33;;;;;;;2.60;1.20;;;;;;;35.48;28.42;101136.97;84810;1322;22593;-72
2022/07/03 05:39:40;;;;;;;1.70;0.80;;;;;;;35.42;27.64;101130.06;84831;1327;22583;-72
2022/07/03 05:41:48;;;;;;;3.60;1.10;;;;;;;35.30;28.07;101127.70;84822;1324;22588;-72
2022/07/03 05:43:57;;;;;;;2.70;1.10;;;;;;;35.30;28.03;101128.08;84793;1326;22576;-72
2022/07/03 05:46:04;;;;;;;4.90;0.90;;;;;;;35.44;28.28;101122.16;84835;1327;22654;-72
2022/07/03 05:48:12;;;;;;;2.70;1.20;;;;;;;35.56;27.98;101121.30;84821;1326;22738;-72
2022/07/03 05:50:19;;;;;;;2.80;1.00;;;;;;;35.57;27.97;101118.88;84840;1323;23982;-72
2022/07/03 05:52:27;;;;;;;3.30;0.70;;;;;;;35.62;27.52;101123.79;84827;1327;22562;-72
2022/07/03 05:54:34;;;;;;;3.60;0.90;;;;;;;35.73;27.57;101127.80;84810;1327;23950;-72
2022/07/03 05:56:42;;;;;;;2.30;1.00;;;;;;;35.96;26.87;101125.25;84811;1326;22677;-72
2022/07/03 05:58:50;;;;;;;1.90;0.80;;;;;;;36.03;26.44;101122.15;84797;1324;23839;-72
2022/07/03 06:00:57;;;;;;;2.00;0.80;;;;;;;35.97;25.68;101121.48;84823;1324;25740;-72
2022/07/03 06:03:05;;;;;;;4.70;1.10;;;;;;;35.67;25.81;101124.77;84837;1324;23981;-72
2022/07/03 06:05:12;;;;;;;2.20;0.70;;;;;;;35.53;26.09;101126.32;84820;1324;22708;-72
2022/07/03 06:07:21;;;;;;;3.00;1.00;;;;;;;35.53;26.06;101126.11;84823;1323;24318;-72
2022/07/03 06:09:27;;;;;;;;;;;;;;;35.49;25.99;101123.58;84843;1324;22708;-72
2022/07/03 06:11:35;;;;;;;3.90;1.00;;;;;;;35.48;26.41;101124.79;84811;1324;22620;-72
2022/07/03 06:13:42;;;;;;;1.60;0.80;;;;;;;35.69;26.25;101131.27;84822;1325;22597;-72
2022/07/03 06:15:49;;;;;;;1.70;0.70;;;;;;;35.58;25.71;101135.95;84827;1322;22679;-72
2022/07/03 06:17:57;;;;;;;2.20;0.90;;;;;;;35.60;25.38;101135.46;84819;1328;25428;-72
2022/07/03 06:20:05;;;;;;;2.70;1.10;;;;;;;35.57;25.41;101136.38;84781;1327;22752;-72
2022/07/03 06:22:13;;;;;;;1.80;0.60;;;;;;;35.67;25.08;101137.63;84796;1328;25410;-72
2022/07/03 06:24:21;;;;;;;3.40;1.20;;;;;;;35.71;25.03;101141.70;84846;1321;22668;-72
2022/07/03 06:26:28;;;;;;;3.40;1.00;;;;;;;35.60;24.83;101143.42;84818;1325;22596;-72
2022/07/03 06:28:36;;;;;;;3.20;1.40;;;;;;;35.80;24.64;101143.23;84819;1328;24430;-72
2022/07/03 06:30:44;;;;;;;2.20;0.90;;;;;;;35.78;24.00;101140.13;84817;1323;22595;-72
2022/07/03 06:32:51;;;;;;;2.40;0.70;;;;;;;35.65;24.76;101141.17;84844;1327;25438;-72
2022/07/03 06:34:59;;;;;;;1.70;0.80;;;;;;;35.74;24.34;101142.72;84798;1326;22540;-72
2022/07/03 06:37:07;;;;;;;4.00;1.70;;;;;;;35.90;23.86;101140.57;84817;1328;22604;-72
2022/07/03 06:39:14;;;;;;;2.70;0.90;;;;;;;36.02;23.14;101132.63;84816;1327;22811;-72
2022/07/03 06:41:22;;;;;;;1.90;0.70;;;;;;;36.05;23.93;101135.08;84814;1326;22595;-72
2022/07/03 06:43:29;;;;;;;1.70;0.80;;;;;;;36.35;23.19;101141.39;84822;1325;22598;-72
2022/07/03 06:45:37;;;;;;;2.70;0.80;;;;;;;36.31;23.05;101135.88;84840;1326;22605;-72
2022/07/03 06:47:44;;;;;;;1.30;0.90;;;;;;;36.33;23.34;101135.89;84833;1324;22543;-72
2022/07/03 06:49:52;;;;;;;3.90;0.90;;;;;;;36.43;22.96;101137.97;84821;1324;22552;-72
2022/07/03 06:51:59;;;;;;;3.00;0.70;;;;;;;36.34;22.96;101137.86;84825;1324;22636;-72
2022/07/03 06:54:07;;;;;;;3.60;0.90;;;;;;;36.24;22.48;101134.54;84814;1324;22623;-71
2022/07/03 06:56:15;;;;;;;2.00;0.80;;;;;;;36.32;23.16;101139.23;84815;1324;23910;-72
2022/07/03 06:58:25;;;;;;;1.30;0.60;;;;;;;36.49;21.97;101134.11;84822;1328;23934;-72
2022/07/03 07:00:34;;;;;;;2.00;0.80;;;;;;;36.85;21.93;101129.27;84798;1324;22602;-72
2022/07/03 07:02:41;;;;;;;3.90;0.70;;;;;;;37.04;21.52;101120.19;84822;1327;22652;-71
2022/07/03 07:04:49;;;;;;;1.80;0.90;;;;;;;37.15;21.45;101114.77;84811;1324;22610;-71
2022/07/03 07:06:56;;;;;;;1.50;0.60;;;;;;;37.22;21.70;101108.18;84822;1326;22635;-71
2022/07/03 07:09:04;;;;;;;2.10;0.60;;;;;;;37.41;21.12;101104.01;84833;1325;24199;-71
2022/07/03 07:11:11;;;;;;;1.30;0.60;;;;;;;37.53;20.79;101101.34;84833;1327;22738;-72
2022/07/03 07:13:19;;;;;;;2.40;1.40;;;;;;;37.56;21.48;101095.27;84823;1324;23930;-72
2022/07/03 07:15:26;;;;;;;1.40;0.70;;;;;;;37.70;20.69;101095.83;84809;1326;24267;-72
2022/07/03 07:17:34;;;;;;;3.00;0.80;;;;;;;37.69;20.86;101096.72;84806;1326;22551;-72
2022/07/03 07:19:41;;;;;;;0.60;0.50;;;;;;;37.63;20.78;101093.15;84816;1326;23956;-72
2022/07/03 07:21:48;;;;;;;3.80;0.90;;;;;;;37.70;21.08;101093.48;84810;1324;22834;-72
2022/07/03 07:23:56;;;;;;;0.80;0.50;;;;;;;37.83;21.03;101091.77;84829;1328;22578;-72
2022/07/03 07:26:03;;;;;;;1.10;0.60;;;;;;;37.80;20.35;101090.61;84834;1327;24491;-72
2022/07/03 07:28:11;;;;;;;1.10;0.80;;;;;;;37.66;20.63;101082.42;84836;1323;22784;-72
2022/07/03 07:30:18;;;;;;;1.00;0.60;;;;;;;37.74;20.96;101085.39;84822;1324;25437;-72
2022/07/03 07:32:26;;;;;;;1.50;0.80;;;;;;;37.63;20.11;101083.32;84819;1324;22543;-72
2022/07/03 07:34:33;;;;;;;3.00;1.10;;;;;;;37.28;20.49;101079.56;84827;1318;22540;-72
2022/07/03 07:36:41;;;;;;;5.20;0.90;;;;;;;37.36;21.10;101079.23;84828;1323;22659;-72
2022/07/03 07:38:48;;;;;;;2.70;1.20;;;;;;;37.41;21.38;101077.80;84834;1324;25413;-72
2022/07/03 07:40:56;;;;;;;1.90;0.80;;;;;;;37.51;20.58;101080.94;84809;1324;22529;-72
2022/07/03 07:43:03;;;;;;;1.20;1.10;;;;;;;37.62;21.39;101079.33;84835;1326;24475;-72
2022/07/03 07:45:14;;;;;;;1.80;1.50;;;;;;;37.91;20.76;101079.87;84826;1324;22584;-72
2022/07/03 07:47:21;;;;;;;2.50;0.80;;;;;;;38.02;20.78;101079.05;84824;1326;22620;-72
2022/07/03 07:49:28;;;;;;;1.60;0.80;;;;;;;38.03;20.24;101078.08;84810;1327;24438;-73
2022/07/03 07:51:36;;;;;;;1.10;0.50;;;;;;;38.01;19.99;101072.78;84840;1329;25435;-72
2022/07/03 07:53:44;;;;;;;1.70;0.60;;;;;;;37.90;20.11;101076.73;84828;1323;25394;-72
2022/07/03 07:55:51;;;;;;;7.00;1.20;;;;;;;37.67;20.16;101076.06;84849;1325;22628;-72
2022/07/03 07:57:59;;;;;;;2.20;0.80;;;;;;;37.54;19.91;101076.52;84828;1324;22629;-72
2022/07/03 08:00:11;;;;;;;2.20;0.80;;;;;;;37.49;20.41;101073.20;84844;1324;24512;-72
2022/07/03 08:07:09;;;;;;;2.40;0.80;;;;;;;38.10;20.44;101072.92;84847;1325;22948;-72
2022/07/03 08:09:17;;;;;;;1.30;0.80;;;;;;;38.39;20.32;101072.61;84820;1323;23957;-72
2022/07/03 08:11:24;;;;;;;1.50;0.70;;;;;;;38.64;19.51;101072.91;84818;1324;22656;-72
2022/07/03 08:13:31;;;;;;;1.00;0.70;;;;;;;38.61;19.10;101070.54;84805;1323;22572;-72
2022/07/03 08:15:39;;;;;;;2.80;0.80;;;;;;;38.70;18.78;101071.16;84800;1324;22550;-72
2022/07/03 08:17:47;;;;;;;3.60;0.90;;;;;;;38.78;18.64;101070.00;84816;1323;22886;-75
2022/07/03 08:19:54;;;;;;;1.60;0.70;;;;;;;38.77;18.89;101064.04;84845;1324;22624;-73
2022/07/03 08:22:05;;;;;;;2.80;0.70;;;;;;;38.82;19.36;101063.58;84826;1324;22653;-72
2022/07/03 08:24:13;;;;;;;2.80;0.80;;;;;;;38.90;19.29;101065.45;84832;1328;25349;-72
2022/07/03 08:26:20;;;;;;;3.40;0.80;;;;;;;39.04;19.43;101060.57;84817;1328;22601;-72
2022/07/03 08:28:28;;;;;;;1.40;0.80;;;;;;;39.12;18.87;101059.88;84814;1328;25430;-72
2022/07/03 08:30:36;;;;;;;2.10;0.80;;;;;;;38.83;19.43;101053.83;84817;1323;22610;-72
2022/07/03 08:32:44;;;;;;;0.70;0.60;;;;;;;38.60;19.53;101056.25;84803;1323;22674;-72
2022/07/03 08:34:52;;;;;;;1.30;0.90;;;;;;;38.44;20.26;101052.87;84825;1324;25251;-73
2022/07/03 08:37:00;;;;;;;5.40;1.70;;;;;;;38.57;20.89;101053.88;84824;1327;23946;-72
2022/07/03 08:39:07;;;;;;;3.90;1.20;;;;;;;38.77;20.02;101047.98;84811;1321;24479;-72
2022/07/03 08:41:15;;;;;;;0.80;0.60;;;;;;;38.63;19.94;101046.73;84800;1327;24290;-72
2022/07/03 08:43:22;;;;;;;1.00;0.60;;;;;;;38.62;20.11;101047.25;84836;1325;22792;-72
2022/07/03 08:45:30;;;;;;;3.40;0.70;;;;;;;39.00;20.05;101040.30;84814;1327;22550;-72
2022/07/03 08:47:38;;;;;;;1.30;0.80;;;;;;;39.20;20.01;101044.07;84835;1324;25292;-72
2022/07/03 08:49:46;;;;;;;2.80;1.40;;;;;;;39.37;19.40;101040.82;84804;1327;22622;-72
2022/07/03 08:51:54;;;;;;;1.20;0.60;;;;;;;39.28;19.04;101042.04;84795;1329;22667;-72
2022/07/03 08:54:02;;;;;;;0.80;0.70;;;;;;;39.32;19.95;101041.95;84821;1321;24396;-72
2022/07/03 08:56:10;;;;;;;1.40;0.70;;;;;;;39.59;20.21;101044.97;84833;1323;22539;-72
2022/07/03 08:58:19;;;;;;;1.40;0.90;;;;;;;39.84;19.61;101035.89;84826;1326;22597;-72
2022/07/03 09:00:26;;;;;;;1.40;0.80;;;;;;;39.95;18.84;101033.27;84837;1324;22731;-72
2022/07/03 09:02:36;;;;;;;5.20;1.00;;;;;;;39.71;19.24;101031.12;84827;1323;25502;-73
2022/07/03 09:04:43;;;;;;;0.90;0.60;;;;;;;39.66;19.83;101031.86;84820;1327;22696;-73
2022/07/03 09:06:51;;;;;;;1.20;0.80;;;;;;;39.72;20.25;101031.09;84824;1324;22579;-72
2022/07/03 09:08:58;;;;;;;1.20;0.70;;;;;;;39.74;19.22;101029.89;84828;1327;23865;-72
2022/07/03 09:11:06;;;;;;;0.70;0.60;;;;;;;39.50;18.77;101031.41;84793;1326;25417;-72
2022/07/03 09:13:14;;;;;;;1.30;0.60;;;;;;;39.01;18.82;101026.20;84845;1324;22573;-70
2022/07/03 09:15:22;;;;;;;3.20;0.60;;;;;;;38.34;18.95;101029.95;84784;1325;24370;-71
2022/07/03 09:17:32;;;;;;;2.10;0.70;;;;;;;37.62;19.65;101028.16;84791;1326;22524;-72
2022/07/03 09:19:47;;;;;;;1.80;0.70;;;;;;;37.14;20.19;101027.27;84782;1327;22585;-72
2022/07/03 09:21:55;;;;;;;2.40;0.90;;;;;;;36.77;20.73;101025.63;84830;1324;22592;-72
2022/07/03 09:24:07;;;;;;;2.50;0.70;;;;;;;36.50;21.80;101026.28;84791;1326;25421;-72
2022/07/03 09:26:17;;;;;;;1.40;0.70;;;;;;;36.19;21.24;101022.73;84792;1327;22595;-72
2022/07/03 09:28:42;;;;;;;3.40;0.70;;;;;;;35.77;21.73;101028.52;84819;1328;22618;-72
2022/07/03 09:31:01;;;;;;;1.30;0.90;;;;;;;35.52;22.50;101025.71;84793;1327;22606;-72
2022/07/03 09:33:11;;;;;;;1.60;0.60;;;;;;;35.14;22.77;101027.33;84809;1326;22657;-72
2022/07/03 09:35:24;;;;;;;2.30;1.10;;;;;;;34.66;23.64;101025.12;84805;1325;22543;-73
2022/07/03 09:37:33;;;;;;;2.20;0.70;;;;;;;34.34;23.40;101021.39;84811;1326;24459;-73
2022/07/03 09:39:40;;;;;;;0.70;0.40;;;;;;;34.15;23.34;101017.04;84791;1326;22635;-72
2022/07/03 09:41:59;;;;;;;2.90;0.60;;;;;;;33.86;24.63;101012.17;84848;1328;22582;-72
2022/07/03 09:44:07;;;;;;;2.80;0.60;;;;;;;33.77;25.63;101014.45;84831;1324;23783;-72
2022/07/03 09:46:15;;;;;;;1.70;0.60;;;;;;;33.65;24.45;101014.02;84823;1323;22603;-72
2022/07/03 09:48:30;;;;;;;2.80;0.70;;;;;;;33.39;24.85;101012.66;84785;1327;22547;-72
2022/07/03 09:50:38;;;;;;;2.00;0.70;;;;;;;33.17;25.29;101010.61;84800;1326;22593;-72
2022/07/03 09:52:46;;;;;;;1.30;0.60;;;;;;;32.97;26.47;101009.31;84823;1324;22623;-72
2022/07/03 09:54:53;;;;;;;2.50;0.60;;;;;;;32.80;26.93;101007.61;84830;1328;22574;-72
2022/07/03 09:57:01;;;;;;;0.70;0.50;;;;;;;32.62;27.37;101008.48;84830;1324;24237;-70
2022/07/03 09:59:15;;;;;;;0.90;0.60;;;;;;;32.32;26.94;101003.56;84847;1324;22588;-71
2022/07/03 10:01:23;;;;;;;1.50;0.60;;;;;;;32.07;27.09;101001.56;84780;1326;22597;-71
2022/07/03 10:03:30;;;;;;;1.30;0.80;;;;;;;31.98;27.50;100996.63;84784;1327;24070;-71
2022/07/03 10:05:39;;;;;;;1.80;0.70;;;;;;;31.89;28.01;100998.51;84800;1326;25974;-71